sensor_id;sensor_type;location;lat;lon;timestamp;pressure;altitude;pressure_sealevel;temperature;humidity
1401;BME280;46518;48.842;8.926;2023-06-22T00:00:35;97155.06;;;22.29;83.68
1401;BME280;46518;48.842;8.926;2023-06-22T00:03:05;97150.50;;;22.29;83.45
1401;BME280;46518;48.842;8.926;2023-06-22T00:05:33;97146.88;;;22.25;83.23
1401;BME280;46518;48.842;8.926;2023-06-22T00:08:03;97139.00;;;22.20;83.51
1401;BME280;46518;48.842;8.926;2023-06-22T00:10:31;97140.56;;;22.30;83.74
1401;BME280;46518;48.842;8.926;2023-06-22T00:13:00;97145.75;;;22.26;83.43
1401;BME280;46518;48.842;8.926;2023-06-22T00:15:28;97147.19;;;22.24;83.89
1401;BME280;46518;48.842;8.926;2023-06-22T00:17:56;97146.88;;;22.16;84.10
1401;BME280;46518;48.842;8.926;2023-06-22T00:20:27;97145.31;;;22.15;84.31
1401;BME280;46518;48.842;8.926;2023-06-22T00:22:58;97152.25;;;22.08;84.93
1401;BME280;46518;48.842;8.926;2023-06-22T00:25:26;97163.00;;;21.99;85.13
1401;BME280;46518;48.842;8.926;2023-06-22T00:27:54;97156.84;;;21.98;84.79
1401;BME280;46518;48.842;8.926;2023-06-22T00:30:22;97142.81;;;21.93;84.91
1401;BME280;46518;48.842;8.926;2023-06-22T00:32:50;97142.06;;;21.92;85.16
1401;BME280;46518;48.842;8.926;2023-06-22T00:35:19;97154.34;;;21.93;85.35
1401;BME280;46518;48.842;8.926;2023-06-22T00:37:48;97169.00;;;21.87;85.21
1401;BME280;46518;48.842;8.926;2023-06-22T00:40:19;97165.69;;;21.90;85.57
1401;BME280;46518;48.842;8.926;2023-06-22T00:42:48;97156.72;;;21.95;85.20
1401;BME280;46518;48.842;8.926;2023-06-22T00:45:16;97186.16;;;21.86;84.71
1401;BME280;46518;48.842;8.926;2023-06-22T00:47:45;97211.72;;;21.58;84.96
1401;BME280;46518;48.842;8.926;2023-06-22T00:50:18;97234.94;;;21.22;87.63
1401;BME280;46518;48.842;8.926;2023-06-22T00:52:51;97242.41;;;20.94;90.95
1401;BME280;46518;48.842;8.926;2023-06-22T00:55:20;97249.84;;;21.06;91.33
1401;BME280;46518;48.842;8.926;2023-06-22T00:57:49;97227.41;;;21.24;91.01
1401;BME280;46518;48.842;8.926;2023-06-22T01:00:17;97216.06;;;21.36;90.65
1401;BME280;46518;48.842;8.926;2023-06-22T01:02:47;97208.41;;;21.52;89.90
1401;BME280;46518;48.842;8.926;2023-06-22T01:05:19;97201.97;;;21.62;89.25
1401;BME280;46518;48.842;8.926;2023-06-22T01:07:58;97184.13;;;21.66;88.96
1401;BME280;46518;48.842;8.926;2023-06-22T01:10:35;97182.41;;;21.70;88.91
1401;BME280;46518;48.842;8.926;2023-06-22T01:13:16;97177.53;;;21.72;88.43
1401;BME280;46518;48.842;8.926;2023-06-22T01:15:50;97181.00;;;21.72;88.52
1401;BME280;46518;48.842;8.926;2023-06-22T01:18:20;97179.41;;;21.71;88.56
1401;BME280;46518;48.842;8.926;2023-06-22T01:20:52;97172.63;;;21.74;88.44
1401;BME280;46518;48.842;8.926;2023-06-22T01:23:29;97163.19;;;21.68;88.05
1401;BME280;46518;48.842;8.926;2023-06-22T01:26:06;97165.22;;;21.71;87.82
1401;BME280;46518;48.842;8.926;2023-06-22T01:28:45;97176.41;;;21.73;87.91
1401;BME280;46518;48.842;8.926;2023-06-22T01:31:16;97163.03;;;21.64;88.11
1401;BME280;46518;48.842;8.926;2023-06-22T01:33:50;97164.00;;;21.60;87.65
1401;BME280;46518;48.842;8.926;2023-06-22T01:36:19;97178.97;;;21.52;87.48
1401;BME280;46518;48.842;8.926;2023-06-22T01:38:48;97168.69;;;21.54;87.17
1401;BME280;46518;48.842;8.926;2023-06-22T01:41:19;97172.47;;;21.53;86.49
1401;BME280;46518;48.842;8.926;2023-06-22T01:43:49;97175.63;;;21.55;86.34
1401;BME280;46518;48.842;8.926;2023-06-22T01:46:19;97176.44;;;21.47;86.18
1401;BME280;46518;48.842;8.926;2023-06-22T01:48:49;97165.19;;;21.36;86.85
1401;BME280;46518;48.842;8.926;2023-06-22T01:51:18;97173.91;;;21.42;87.30
1401;BME280;46518;48.842;8.926;2023-06-22T01:53:46;97177.06;;;21.52;87.36
1401;BME280;46518;48.842;8.926;2023-06-22T01:56:17;97169.19;;;21.47;87.02
1401;BME280;46518;48.842;8.926;2023-06-22T01:58:50;97184.00;;;21.45;86.96
1401;BME280;46518;48.842;8.926;2023-06-22T02:01:23;97189.16;;;21.41;87.21
1401;BME280;46518;48.842;8.926;2023-06-22T02:03:57;97194.53;;;21.50;87.32
1401;BME280;46518;48.842;8.926;2023-06-22T02:06:32;97179.09;;;21.56;86.65
1401;BME280;46518;48.842;8.926;2023-06-22T02:09:08;97179.72;;;21.44;86.71
1401;BME280;46518;48.842;8.926;2023-06-22T02:11:40;97190.59;;;21.39;87.00
1401;BME280;46518;48.842;8.926;2023-06-22T02:14:10;97204.44;;;21.41;87.23
1401;BME280;46518;48.842;8.926;2023-06-22T02:16:40;97196.84;;;21.34;87.43
1401;BME280;46518;48.842;8.926;2023-06-22T02:19:09;97192.91;;;21.23;87.58
1401;BME280;46518;48.842;8.926;2023-06-22T02:21:38;97191.75;;;21.06;87.67
1401;BME280;46518;48.842;8.926;2023-06-22T02:24:06;97180.75;;;20.99;88.16
1401;BME280;46518;48.842;8.926;2023-06-22T02:26:34;97169.84;;;20.96;88.40
1401;BME280;46518;48.842;8.926;2023-06-22T02:29:03;97163.91;;;21.07;88.53
1401;BME280;46518;48.842;8.926;2023-06-22T02:31:32;97161.22;;;21.07;88.29
1401;BME280;46518;48.842;8.926;2023-06-22T02:34:01;97164.69;;;21.08;88.58
1401;BME280;46518;48.842;8.926;2023-06-22T02:36:29;97170.81;;;21.00;88.35
1401;BME280;46518;48.842;8.926;2023-06-22T02:39:00;97162.94;;;20.95;88.43
1401;BME280;46518;48.842;8.926;2023-06-22T02:41:30;97152.38;;;20.98;88.08
1401;BME280;46518;48.842;8.926;2023-06-22T02:43:58;97152.06;;;20.91;88.26
1401;BME280;46518;48.842;8.926;2023-06-22T02:46:26;97146.38;;;20.84;88.56
1401;BME280;46518;48.842;8.926;2023-06-22T02:48:56;97164.19;;;20.97;88.44
1401;BME280;46518;48.842;8.926;2023-06-22T02:51:24;97161.03;;;20.95;88.32
1401;BME280;46518;48.842;8.926;2023-06-22T02:53:52;97153.47;;;20.88;88.46
1401;BME280;46518;48.842;8.926;2023-06-22T02:56:28;97158.66;;;20.85;88.73
1401;BME280;46518;48.842;8.926;2023-06-22T02:58:59;97163.81;;;20.73;88.73
1401;BME280;46518;48.842;8.926;2023-06-22T03:01:33;97146.81;;;20.68;88.94
1401;BME280;46518;48.842;8.926;2023-06-22T03:04:22;97167.56;;;20.63;88.89
1401;BME280;46518;48.842;8.926;2023-06-22T03:06:50;97163.03;;;20.72;89.62
1401;BME280;46518;48.842;8.926;2023-06-22T03:09:20;97151.41;;;20.77;88.88
1401;BME280;46518;48.842;8.926;2023-06-22T03:11:48;97144.75;;;20.74;89.03
1401;BME280;46518;48.842;8.926;2023-06-22T03:14:17;97148.84;;;20.72;88.76
1401;BME280;46518;48.842;8.926;2023-06-22T03:16:45;97145.25;;;20.76;88.59
1401;BME280;46518;48.842;8.926;2023-06-22T03:19:13;97147.63;;;20.78;88.97
1401;BME280;46518;48.842;8.926;2023-06-22T03:21:43;97138.50;;;20.79;89.01
1401;BME280;46518;48.842;8.926;2023-06-22T03:24:11;97143.38;;;20.77;88.90
1401;BME280;46518;48.842;8.926;2023-06-22T03:26:39;97143.69;;;20.75;89.26
1401;BME280;46518;48.842;8.926;2023-06-22T03:29:07;97132.50;;;20.73;89.87
1401;BME280;46518;48.842;8.926;2023-06-22T03:31:36;97130.75;;;20.68;90.40
1401;BME280;46518;48.842;8.926;2023-06-22T03:34:05;97135.97;;;20.74;90.41
1401;BME280;46518;48.842;8.926;2023-06-22T03:36:33;97132.19;;;20.75;89.95
1401;BME280;46518;48.842;8.926;2023-06-22T03:39:03;97129.06;;;20.81;89.91
1401;BME280;46518;48.842;8.926;2023-06-22T03:41:31;97129.06;;;20.81;89.56
1401;BME280;46518;48.842;8.926;2023-06-22T03:43:59;97129.88;;;20.82;89.89
1401;BME280;46518;48.842;8.926;2023-06-22T03:46:27;97132.34;;;20.78;89.93
1401;BME280;46518;48.842;8.926;2023-06-22T03:48:55;97128.91;;;20.78;89.67
1401;BME280;46518;48.842;8.926;2023-06-22T03:51:23;97125.59;;;20.81;90.14
1401;BME280;46518;48.842;8.926;2023-06-22T03:53:52;97119.44;;;20.72;90.09
1401;BME280;46518;48.842;8.926;2023-06-22T03:56:21;97118.97;;;20.78;90.22
1401;BME280;46518;48.842;8.926;2023-06-22T03:58:49;97125.59;;;20.72;90.31
1401;BME280;46518;48.842;8.926;2023-06-22T04:01:18;97119.75;;;20.70;90.58
1401;BME280;46518;48.842;8.926;2023-06-22T04:03:46;97128.72;;;20.65;90.31
1401;BME280;46518;48.842;8.926;2023-06-22T04:06:16;97121.13;;;20.59;90.53
1401;BME280;46518;48.842;8.926;2023-06-22T04:08:47;97133.09;;;20.61;91.11
1401;BME280;46518;48.842;8.926;2023-06-22T04:11:18;97123.50;;;20.69;91.24
1401;BME280;46518;48.842;8.926;2023-06-22T04:13:47;97118.97;;;20.70;90.85
1401;BME280;46518;48.842;8.926;2023-06-22T04:16:18;97113.16;;;20.67;90.28
1401;BME280;46518;48.842;8.926;2023-06-22T04:18:46;97122.09;;;20.72;90.72
1401;BME280;46518;48.842;8.926;2023-06-22T04:21:14;97118.03;;;20.74;90.72
1401;BME280;46518;48.842;8.926;2023-06-22T04:23:43;97115.03;;;20.76;90.91
1401;BME280;46518;48.842;8.926;2023-06-22T04:26:12;97112.22;;;20.81;90.77
1401;BME280;46518;48.842;8.926;2023-06-22T04:28:41;97113.50;;;20.83;90.93
1401;BME280;46518;48.842;8.926;2023-06-22T04:31:11;97094.47;;;20.85;91.14
1401;BME280;46518;48.842;8.926;2023-06-22T04:33:39;97106.91;;;20.89;91.64
1401;BME280;46518;48.842;8.926;2023-06-22T04:36:07;97097.63;;;20.96;91.70
1401;BME280;46518;48.842;8.926;2023-06-22T04:38:35;97096.38;;;21.02;91.94
1401;BME280;46518;48.842;8.926;2023-06-22T04:41:03;97097.78;;;21.08;91.88
1401;BME280;46518;48.842;8.926;2023-06-22T04:43:33;97106.44;;;21.14;92.00
1401;BME280;46518;48.842;8.926;2023-06-22T04:46:01;97102.53;;;21.20;92.46
1401;BME280;46518;48.842;8.926;2023-06-22T04:48:32;97094.97;;;21.22;92.36
1401;BME280;46518;48.842;8.926;2023-06-22T04:51:01;97092.75;;;21.24;92.64
1401;BME280;46518;48.842;8.926;2023-06-22T04:53:31;97087.41;;;21.32;92.45
1401;BME280;46518;48.842;8.926;2023-06-22T04:55:59;97077.66;;;21.28;92.62
1401;BME280;46518;48.842;8.926;2023-06-22T04:58:27;97082.19;;;21.36;92.40
1401;BME280;46518;48.842;8.926;2023-06-22T05:00:59;97083.97;;;21.41;92.27
1401;BME280;46518;48.842;8.926;2023-06-22T05:03:27;97082.38;;;21.48;92.18
1401;BME280;46518;48.842;8.926;2023-06-22T05:05:57;97075.31;;;21.52;91.99
1401;BME280;46518;48.842;8.926;2023-06-22T05:08:25;97074.66;;;21.56;91.74
1401;BME280;46518;48.842;8.926;2023-06-22T05:10:55;97083.78;;;21.63;91.71
1401;BME280;46518;48.842;8.926;2023-06-22T05:13:31;97082.84;;;21.68;91.23
1401;BME280;46518;48.842;8.926;2023-06-22T05:15:59;97081.09;;;21.72;91.30
1401;BME280;46518;48.842;8.926;2023-06-22T05:18:30;97079.81;;;21.78;91.11
1401;BME280;46518;48.842;8.926;2023-06-22T05:21:00;97079.50;;;21.80;90.79
1401;BME280;46518;48.842;8.926;2023-06-22T05:23:30;97073.97;;;21.85;90.69
1401;BME280;46518;48.842;8.926;2023-06-22T05:25:58;97067.34;;;21.91;90.31
1401;BME280;46518;48.842;8.926;2023-06-22T05:28:26;97059.47;;;21.94;90.15
1401;BME280;46518;48.842;8.926;2023-06-22T05:30:54;97056.72;;;22.03;89.97
1401;BME280;46518;48.842;8.926;2023-06-22T05:33:22;97057.69;;;22.07;89.53
1401;BME280;46518;48.842;8.926;2023-06-22T05:35:51;97055.47;;;22.09;89.34
1401;BME280;46518;48.842;8.926;2023-06-22T05:38:20;97063.47;;;22.18;89.23
1401;BME280;46518;48.842;8.926;2023-06-22T05:40:48;97065.50;;;22.21;88.78
1401;BME280;46518;48.842;8.926;2023-06-22T05:43:16;97075.44;;;22.29;88.64
1401;BME280;46518;48.842;8.926;2023-06-22T05:45:45;97075.09;;;22.31;88.45
1401;BME280;46518;48.842;8.926;2023-06-22T05:48:13;97073.66;;;22.33;87.95
1401;BME280;46518;48.842;8.926;2023-06-22T05:50:42;97065.13;;;22.40;87.60
1401;BME280;46518;48.842;8.926;2023-06-22T05:53:10;97065.06;;;22.49;87.33
1401;BME280;46518;48.842;8.926;2023-06-22T05:55:39;97054.97;;;22.54;87.03
1401;BME280;46518;48.842;8.926;2023-06-22T05:58:09;97059.22;;;22.55;86.85
1401;BME280;46518;48.842;8.926;2023-06-22T06:00:37;97057.13;;;22.61;86.63
1401;BME280;46518;48.842;8.926;2023-06-22T06:03:06;97053.66;;;22.60;86.51
1401;BME280;46518;48.842;8.926;2023-06-22T06:05:36;97055.69;;;22.64;86.33
1401;BME280;46518;48.842;8.926;2023-06-22T06:08:05;97064.53;;;22.64;86.23
1401;BME280;46518;48.842;8.926;2023-06-22T06:10:34;97057.84;;;22.70;86.41
1401;BME280;46518;48.842;8.926;2023-06-22T06:13:04;97054.66;;;22.77;86.15
1401;BME280;46518;48.842;8.926;2023-06-22T06:15:33;97058.41;;;22.85;86.06
1401;BME280;46518;48.842;8.926;2023-06-22T06:18:02;97054.88;;;22.93;85.62
1401;BME280;46518;48.842;8.926;2023-06-22T06:20:32;97049.97;;;22.95;85.28
1401;BME280;46518;48.842;8.926;2023-06-22T06:23:01;97056.72;;;23.01;84.73
1401;BME280;46518;48.842;8.926;2023-06-22T06:25:29;97051.97;;;23.07;84.33
1401;BME280;46518;48.842;8.926;2023-06-22T06:27:57;97053.44;;;23.16;84.06
1401;BME280;46518;48.842;8.926;2023-06-22T06:30:27;97056.38;;;23.23;83.28
1401;BME280;46518;48.842;8.926;2023-06-22T06:35:35;97056.91;;;23.38;82.53
1401;BME280;46518;48.842;8.926;2023-06-22T06:38:04;97058.28;;;23.44;82.35
1401;BME280;46518;48.842;8.926;2023-06-22T06:40:32;97064.88;;;23.46;82.05
1401;BME280;46518;48.842;8.926;2023-06-22T06:43:01;97054.72;;;23.52;81.57
1401;BME280;46518;48.842;8.926;2023-06-22T06:45:30;97057.31;;;23.61;81.07
1401;BME280;46518;48.842;8.926;2023-06-22T06:48:01;97060.91;;;23.65;80.79
1401;BME280;46518;48.842;8.926;2023-06-22T06:50:29;97062.44;;;23.75;80.29
1401;BME280;46518;48.842;8.926;2023-06-22T06:52:58;97043.94;;;23.73;79.89
1401;BME280;46518;48.842;8.926;2023-06-22T06:55:28;97051.91;;;23.82;79.50
1401;BME280;46518;48.842;8.926;2023-06-22T06:57:59;97056.31;;;23.86;79.47
1401;BME280;46518;48.842;8.926;2023-06-22T07:00:28;97040.75;;;23.92;78.84
1401;BME280;46518;48.842;8.926;2023-06-22T07:02:57;97038.50;;;23.94;78.22
1401;BME280;46518;48.842;8.926;2023-06-22T07:05:26;97044.53;;;24.03;77.35
1401;BME280;46518;48.842;8.926;2023-06-22T07:07:54;97030.69;;;24.01;76.24
1401;BME280;46518;48.842;8.926;2023-06-22T07:10:22;97030.22;;;24.11;75.79
1401;BME280;46518;48.842;8.926;2023-06-22T07:12:50;97026.19;;;24.18;75.13
1401;BME280;46518;48.842;8.926;2023-06-22T07:15:18;97024.94;;;24.15;74.33
1401;BME280;46518;48.842;8.926;2023-06-22T07:17:46;97015.97;;;24.23;73.97
1401;BME280;46518;48.842;8.926;2023-06-22T07:20:16;97011.59;;;24.31;73.62
1401;BME280;46518;48.842;8.926;2023-06-22T07:22:46;97012.28;;;24.40;73.52
1401;BME280;46518;48.842;8.926;2023-06-22T07:25:14;97015.44;;;24.42;72.79
1401;BME280;46518;48.842;8.926;2023-06-22T07:27:45;97007.81;;;24.44;72.58
1401;BME280;46518;48.842;8.926;2023-06-22T07:30:13;96998.75;;;24.49;72.17
1401;BME280;46518;48.842;8.926;2023-06-22T07:32:43;97001.09;;;24.50;71.39
1401;BME280;46518;48.842;8.926;2023-06-22T07:35:11;96999.75;;;24.57;71.14
1401;BME280;46518;48.842;8.926;2023-06-22T07:37:41;96985.28;;;24.61;71.23
1401;BME280;46518;48.842;8.926;2023-06-22T07:40:10;96988.16;;;24.68;71.17
1401;BME280;46518;48.842;8.926;2023-06-22T07:42:38;96997.34;;;24.80;70.97
1401;BME280;46518;48.842;8.926;2023-06-22T07:45:07;97000.56;;;24.85;70.58
1401;BME280;46518;48.842;8.926;2023-06-22T07:47:35;96987.66;;;24.91;70.18
1401;BME280;46518;48.842;8.926;2023-06-22T07:50:05;96997.38;;;24.95;69.57
1401;BME280;46518;48.842;8.926;2023-06-22T07:52:33;96996.81;;;25.02;69.05
1401;BME280;46518;48.842;8.926;2023-06-22T07:55:03;97012.94;;;25.14;69.26
1401;BME280;46518;48.842;8.926;2023-06-22T07:57:31;97001.50;;;25.17;68.86
1401;BME280;46518;48.842;8.926;2023-06-22T08:00:05;97009.44;;;25.26;68.49
1401;BME280;46518;48.842;8.926;2023-06-22T08:02:39;97008.75;;;25.29;68.09
1401;BME280;46518;48.842;8.926;2023-06-22T08:05:08;97015.69;;;25.30;67.63
1401;BME280;46518;48.842;8.926;2023-06-22T08:07:48;97015.88;;;25.37;67.39
1401;BME280;46518;48.842;8.926;2023-06-22T08:10:19;97029.56;;;25.45;67.34
1401;BME280;46518;48.842;8.926;2023-06-22T08:12:47;97033.22;;;25.52;67.39
1401;BME280;46518;48.842;8.926;2023-06-22T08:15:15;97024.09;;;25.57;67.85
1401;BME280;46518;48.842;8.926;2023-06-22T08:17:44;97025.41;;;25.63;67.56
1401;BME280;46518;48.842;8.926;2023-06-22T08:20:12;97018.97;;;25.68;67.58
1401;BME280;46518;48.842;8.926;2023-06-22T08:22:41;97016.97;;;25.80;66.78
1401;BME280;46518;48.842;8.926;2023-06-22T08:25:13;97011.81;;;25.88;66.64
1401;BME280;46518;48.842;8.926;2023-06-22T08:27:46;97019.91;;;25.88;66.65
1401;BME280;46518;48.842;8.926;2023-06-22T08:30:16;97034.25;;;25.92;66.42
1401;BME280;46518;48.842;8.926;2023-06-22T08:32:45;97026.78;;;26.01;66.15
1401;BME280;46518;48.842;8.926;2023-06-22T08:35:13;97027.19;;;26.03;66.54
1401;BME280;46518;48.842;8.926;2023-06-22T08:37:41;97040.69;;;26.03;65.94
1401;BME280;46518;48.842;8.926;2023-06-22T08:40:10;97042.25;;;26.04;64.72
1401;BME280;46518;48.842;8.926;2023-06-22T08:42:40;97030.44;;;26.09;64.55
1401;BME280;46518;48.842;8.926;2023-06-22T08:45:10;97026.69;;;25.97;64.81
1401;BME280;46518;48.842;8.926;2023-06-22T08:47:39;97013.72;;;26.03;65.08
1401;BME280;46518;48.842;8.926;2023-06-22T08:50:08;97020.25;;;26.02;65.59
1401;BME280;46518;48.842;8.926;2023-06-22T08:52:37;97035.72;;;26.05;64.62
1401;BME280;46518;48.842;8.926;2023-06-22T08:55:09;97073.03;;;26.03;64.67
1401;BME280;46518;48.842;8.926;2023-06-22T08:57:37;97074.88;;;25.71;63.72
1401;BME280;46518;48.842;8.926;2023-06-22T09:00:10;97072.09;;;25.51;63.63
1401;BME280;46518;48.842;8.926;2023-06-22T09:02:43;97065.41;;;25.61;64.24
1401;BME280;46518;48.842;8.926;2023-06-22T09:05:12;97033.81;;;25.90;62.46
1401;BME280;46518;48.842;8.926;2023-06-22T09:07:40;97022.63;;;26.03;62.64
1401;BME280;46518;48.842;8.926;2023-06-22T09:10:08;97007.44;;;26.15;63.38
1401;BME280;46518;48.842;8.926;2023-06-22T09:12:37;97007.41;;;26.31;63.47
1401;BME280;46518;48.842;8.926;2023-06-22T09:15:06;96989.06;;;26.36;63.78
1401;BME280;46518;48.842;8.926;2023-06-22T09:17:40;96985.88;;;26.50;63.76
1401;BME280;46518;48.842;8.926;2023-06-22T09:20:09;96977.78;;;26.50;63.58
1401;BME280;46518;48.842;8.926;2023-06-22T09:22:38;96964.81;;;26.56;63.19
1401;BME280;46518;48.842;8.926;2023-06-22T09:25:08;96959.94;;;26.61;63.43
1401;BME280;46518;48.842;8.926;2023-06-22T09:27:37;96953.75;;;26.61;62.95
1401;BME280;46518;48.842;8.926;2023-06-22T09:30:06;96970.09;;;26.68;63.03
1401;BME280;46518;48.842;8.926;2023-06-22T09:32:34;96965.84;;;26.67;63.00
1401;BME280;46518;48.842;8.926;2023-06-22T09:35:05;96967.47;;;26.72;63.38
1401;BME280;46518;48.842;8.926;2023-06-22T09:37:35;96960.31;;;26.79;63.21
1401;BME280;46518;48.842;8.926;2023-06-22T09:40:05;96947.78;;;26.90;63.15
1401;BME280;46518;48.842;8.926;2023-06-22T09:42:37;96954.09;;;26.98;62.64
1401;BME280;46518;48.842;8.926;2023-06-22T09:45:05;96936.41;;;27.01;61.84
1401;BME280;46518;48.842;8.926;2023-06-22T09:47:34;96942.09;;;27.15;61.67
1401;BME280;46518;48.842;8.926;2023-06-22T09:50:04;96938.78;;;27.22;60.75
1401;BME280;46518;48.842;8.926;2023-06-22T09:52:32;96942.56;;;27.40;62.18
1401;BME280;46518;48.842;8.926;2023-06-22T09:55:14;96961.31;;;27.52;62.25
1401;BME280;46518;48.842;8.926;2023-06-22T09:57:43;96961.22;;;27.68;61.54
1401;BME280;46518;48.842;8.926;2023-06-22T10:00:12;96959.09;;;27.81;61.14
1401;BME280;46518;48.842;8.926;2023-06-22T10:02:41;96942.69;;;27.93;60.69
1401;BME280;46518;48.842;8.926;2023-06-22T10:05:12;96949.41;;;28.03;60.21
1401;BME280;46518;48.842;8.926;2023-06-22T10:07:40;96931.25;;;28.04;58.67
1401;BME280;46518;48.842;8.926;2023-06-22T10:10:12;96923.28;;;28.14;58.62
1401;BME280;46518;48.842;8.926;2023-06-22T10:12:46;96924.94;;;28.23;59.51
1401;BME280;46518;48.842;8.926;2023-06-22T10:15:15;96920.38;;;28.27;58.78
1401;BME280;46518;48.842;8.926;2023-06-22T10:17:44;96923.63;;;28.39;58.43
1401;BME280;46518;48.842;8.926;2023-06-22T10:20:13;96920.31;;;28.50;57.73
1401;BME280;46518;48.842;8.926;2023-06-22T10:22:43;96923.09;;;28.57;56.76
1401;BME280;46518;48.842;8.926;2023-06-22T10:25:12;96918.94;;;28.63;56.30
1401;BME280;46518;48.842;8.926;2023-06-22T10:27:40;96907.38;;;28.66;56.20
1401;BME280;46518;48.842;8.926;2023-06-22T10:30:10;96905.88;;;28.72;55.59
1401;BME280;46518;48.842;8.926;2023-06-22T10:32:40;96911.34;;;28.76;55.58
1401;BME280;46518;48.842;8.926;2023-06-22T10:35:09;96913.75;;;28.85;54.90
1401;BME280;46518;48.842;8.926;2023-06-22T10:37:42;96910.38;;;28.95;54.90
1401;BME280;46518;48.842;8.926;2023-06-22T10:40:12;96910.88;;;29.04;55.32
1401;BME280;46518;48.842;8.926;2023-06-22T10:42:40;96906.66;;;29.07;54.92
1401;BME280;46518;48.842;8.926;2023-06-22T10:45:09;96892.34;;;29.06;54.38
1401;BME280;46518;48.842;8.926;2023-06-22T10:47:37;96898.97;;;29.12;54.16
1401;BME280;46518;48.842;8.926;2023-06-22T10:50:06;96889.75;;;29.20;54.37
1401;BME280;46518;48.842;8.926;2023-06-22T10:52:35;96895.66;;;29.30;55.11
1401;BME280;46518;48.842;8.926;2023-06-22T10:55:05;96889.47;;;29.33;53.32
1401;BME280;46518;48.842;8.926;2023-06-22T10:57:33;96889.13;;;29.38;52.29
1401;BME280;46518;48.842;8.926;2023-06-22T11:00:01;96890.31;;;29.37;51.94
1401;BME280;46518;48.842;8.926;2023-06-22T11:02:32;96888.84;;;29.46;52.34
1401;BME280;46518;48.842;8.926;2023-06-22T11:05:00;96891.22;;;29.52;52.01
1401;BME280;46518;48.842;8.926;2023-06-22T11:07:29;96890.50;;;29.62;52.17
1401;BME280;46518;48.842;8.926;2023-06-22T11:09:57;96889.84;;;29.72;54.44
1401;BME280;46518;48.842;8.926;2023-06-22T11:12:26;96893.78;;;29.82;53.01
1401;BME280;46518;48.842;8.926;2023-06-22T11:14:54;96890.34;;;29.88;52.60
1401;BME280;46518;48.842;8.926;2023-06-22T11:17:25;96891.56;;;29.98;52.44
1401;BME280;46518;48.842;8.926;2023-06-22T11:19:53;96889.28;;;30.04;52.36
1401;BME280;46518;48.842;8.926;2023-06-22T11:22:21;96891.22;;;30.07;51.98
1401;BME280;46518;48.842;8.926;2023-06-22T11:24:50;96879.97;;;30.05;51.27
1401;BME280;46518;48.842;8.926;2023-06-22T11:27:18;96893.94;;;30.07;51.54
1401;BME280;46518;48.842;8.926;2023-06-22T11:29:47;96880.00;;;30.08;51.59
1401;BME280;46518;48.842;8.926;2023-06-22T11:32:16;96873.81;;;30.08;52.22
1401;BME280;46518;48.842;8.926;2023-06-22T11:34:44;96872.22;;;30.03;51.83
1401;BME280;46518;48.842;8.926;2023-06-22T11:37:12;96861.75;;;30.02;51.69
1401;BME280;46518;48.842;8.926;2023-06-22T11:39:42;96859.00;;;29.98;52.00
1401;BME280;46518;48.842;8.926;2023-06-22T11:42:19;96855.84;;;29.93;51.78
1401;BME280;46518;48.842;8.926;2023-06-22T11:44:49;96858.97;;;29.95;51.43
1401;BME280;46518;48.842;8.926;2023-06-22T11:47:17;96852.38;;;29.92;51.52
1401;BME280;46518;48.842;8.926;2023-06-22T11:49:45;96848.06;;;29.84;51.51
1401;BME280;46518;48.842;8.926;2023-06-22T11:52:13;96862.00;;;29.79;51.53
1401;BME280;46518;48.842;8.926;2023-06-22T11:54:41;96867.38;;;29.72;50.92
1401;BME280;46518;48.842;8.926;2023-06-22T11:57:09;96870.84;;;29.69;51.11
1401;BME280;46518;48.842;8.926;2023-06-22T11:59:37;96882.47;;;29.69;51.28
1401;BME280;46518;48.842;8.926;2023-06-22T12:02:07;96862.56;;;29.54;51.65
1401;BME280;46518;48.842;8.926;2023-06-22T12:04:36;96892.47;;;29.65;52.14
1401;BME280;46518;48.842;8.926;2023-06-22T12:07:04;96901.81;;;29.67;52.28
1401;BME280;46518;48.842;8.926;2023-06-22T12:09:32;96908.75;;;29.65;52.27
1401;BME280;46518;48.842;8.926;2023-06-22T12:12:00;96910.66;;;29.61;52.09
1401;BME280;46518;48.842;8.926;2023-06-22T12:14:29;96895.09;;;29.54;52.24
1401;BME280;46518;48.842;8.926;2023-06-22T12:16:58;96909.56;;;29.65;53.73
1401;BME280;46518;48.842;8.926;2023-06-22T12:19:27;96907.66;;;29.70;54.69
1401;BME280;46518;48.842;8.926;2023-06-22T12:21:56;96902.25;;;29.73;54.95
1401;BME280;46518;48.842;8.926;2023-06-22T12:24:24;96887.91;;;29.73;55.14
1401;BME280;46518;48.842;8.926;2023-06-22T12:26:52;96879.75;;;29.73;51.80
1401;BME280;46518;48.842;8.926;2023-06-22T12:29:22;96888.66;;;29.70;51.49
1401;BME280;46518;48.842;8.926;2023-06-22T12:31:50;96861.13;;;29.67;52.00
1401;BME280;46518;48.842;8.926;2023-06-22T12:34:18;96873.56;;;29.69;52.29
1401;BME280;46518;48.842;8.926;2023-06-22T12:36:48;96892.59;;;29.76;52.54
1401;BME280;46518;48.842;8.926;2023-06-22T12:39:16;96899.25;;;29.85;54.41
1401;BME280;46518;48.842;8.926;2023-06-22T12:41:44;96876.75;;;29.85;53.10
1401;BME280;46518;48.842;8.926;2023-06-22T12:44:13;96883.75;;;29.86;54.50
1401;BME280;46518;48.842;8.926;2023-06-22T12:46:41;96888.81;;;29.95;54.74
1401;BME280;46518;48.842;8.926;2023-06-22T12:49:09;96884.97;;;29.99;54.41
1401;BME280;46518;48.842;8.926;2023-06-22T12:51:39;96883.84;;;30.07;54.32
1401;BME280;46518;48.842;8.926;2023-06-22T12:54:09;96887.78;;;30.17;55.57
1401;BME280;46518;48.842;8.926;2023-06-22T12:56:38;96878.50;;;30.22;54.86
1401;BME280;46518;48.842;8.926;2023-06-22T12:59:09;96880.13;;;30.30;53.44
1401;BME280;46518;48.842;8.926;2023-06-22T13:02:01;96880.88;;;30.23;52.39
1401;BME280;46518;48.842;8.926;2023-06-22T13:04:35;96876.69;;;30.33;52.08
1401;BME280;46518;48.842;8.926;2023-06-22T13:07:05;96884.44;;;30.38;52.79
1401;BME280;46518;48.842;8.926;2023-06-22T13:09:49;96886.78;;;30.36;53.56
1401;BME280;46518;48.842;8.926;2023-06-22T13:12:20;96887.53;;;30.37;54.02
1401;BME280;46518;48.842;8.926;2023-06-22T13:14:51;96891.44;;;30.36;54.20
1401;BME280;46518;48.842;8.926;2023-06-22T13:17:23;96887.91;;;30.35;54.82
1401;BME280;46518;48.842;8.926;2023-06-22T13:19:51;96871.22;;;30.29;54.90
1401;BME280;46518;48.842;8.926;2023-06-22T13:22:30;96878.63;;;30.36;55.07
1401;BME280;46518;48.842;8.926;2023-06-22T13:25:00;96875.91;;;30.36;55.28